Wetterdaten: aktuell Mittwoch, 06.05.2026 09:16
Datum Zeit Temperatur Luftfeuchte Luftdruck Regen Wind Richtung Richtung Sonnenschein Helligkeit Taupunkt Windchill
06.05.2026 09:16 11,5 °C 85 % 1004,0 hPa 0,0 l/m² 7,8 km/h (2 Bft) S-SW±22.5° 195 ° 10 min 40,0 klux 9,1 °C 10,6 °C
06.05.2026 08:18 10,8 °C 88 % 1004,2 hPa 0,0 l/m² 6,0 km/h (2 Bft) SW±22.5° 225 ° 33 min 11,9 klux 8,9 °C 10,8 °C
06.05.2026 07:21 9,7 °C 90 % 1004,5 hPa 0,0 l/m² 11,6 km/h (2 Bft) S±45° 180 ° 24 min 26,6 klux 8,1 °C 6,4 °C
06.05.2026 06:24 8,9 °C 88 % 1004,7 hPa 0,0 l/m² 5,0 km/h (1 Bft) S±22.5° 190 ° 0 min 2,09 klux 7,0 °C 8,9 °C
06.05.2026 05:27 9,4 °C 87 % 1005,7 hPa 0,0 l/m² 11,9 km/h (2 Bft) S-SW±67.5° 210 ° 0 min 0 lux 7,3 °C 5,9 °C
06.05.2026 04:30 9,6 °C 88 % 1005,6 hPa 0,0 l/m² 13,9 km/h (3 Bft) SW±45° 215 ° 0 min 0 lux 7,7 °C 5,1 °C
06.05.2026 03:33 9,6 °C 89 % 1005,6 hPa 0,0 l/m² 16,8 km/h (3 Bft) S±22.5° 190 ° 0 min 0 lux 7,9 °C 3,9 °C
06.05.2026 02:36 9,5 °C 90 % 1006,7 hPa 0,0 l/m² 13,1 km/h (3 Bft) S-SW±45° 205 ° 0 min 0 lux 7,9 °C 5,4 °C
06.05.2026 01:39 9,9 °C 90 % 1006,6 hPa 0,0 l/m² 9,8 km/h (2 Bft) S±22.5° 170 ° 0 min 0 lux 8,3 °C 7,6 °C
06.05.2026 00:42 10,2 °C 90 % 1006,5 hPa 0,0 l/m² 12,8 km/h (3 Bft) S±45° 175 ° 0 min 0 lux 8,6 °C 6,4 °C
05.05.2026 23:45 10,4 °C 89 % 1006,5 hPa 0,0 l/m² 14,6 km/h (3 Bft) S-SO±67.5° 165 ° 0 min 0 lux 8,7 °C 5,8 °C
05.05.2026 22:48 10,6 °C 89 % 1006,4 hPa 0,0 l/m² 4,3 km/h (1 Bft) S-SO 165 ° 0 min 0 lux 8,9 °C 10,6 °C
05.05.2026 21:51 10,6 °C 88 % 1006,4 hPa 0,0 l/m² 4,0 km/h (1 Bft) S 170 ° 0 min 0 lux 8,7 °C 10,6 °C
05.05.2026 20:54 11,2 °C 85 % 1006,2 hPa 0,4 l/m² 0,0 km/h (0 Bft) SW 215 ° 0 min 185 lux 8,8 °C 11,2 °C
05.05.2026 19:57 12,0 °C 85 % 1004,9 hPa 0,0 l/m² 22,3 km/h (4 Bft) S-SO±45° 165 ° 0 min 4,98 klux 9,6 °C 5,2 °C
05.05.2026 19:00 13,2 °C 82 % 1004,5 hPa 0,7 l/m² 8,0 km/h (2 Bft) S±22.5° 175 ° 0 min 3,90 klux 10,2 °C 12,2 °C
05.05.2026 18:03 15,7 °C 73 % 1003,8 hPa 0,4 l/m² 16,3 km/h (3 Bft) S-SO±22.5° 155 ° 21 min 3,83 klux 10,9 °C 11,6 °C
05.05.2026 17:06 15,8 °C 77 % 1003,8 hPa 0,0 l/m² 11,6 km/h (2 Bft) O-NO±67.5° 75 ° 15 min 48,0 klux 11,8 °C 13,3 °C
05.05.2026 16:08 14,5 °C 80 % 1005,2 hPa 0,0 l/m² 12,6 km/h (3 Bft) NO±22.5° 50 ° 12 min 42,2 klux 11,1 °C 11,5 °C
05.05.2026 15:11 13,7 °C 83 % 1005,5 hPa 0,0 l/m² 10,5 km/h (2 Bft) O-NO±45° 65 ° 0 min 22,1 klux 10,9 °C 11,4 °C
05.05.2026 14:14 14,0 °C 80 % 1006,5 hPa 0,7 l/m² 4,2 km/h (1 Bft) O-NO 65 ° 0 min 21,6 klux 10,6 °C 14,0 °C
05.05.2026 13:18 14,7 °C 78 % 1006,3 hPa 0,4 l/m² 8,9 km/h (2 Bft) S-SO±67.5° 150 ° 0 min 20,8 klux 10,9 °C 13,3 °C
05.05.2026 12:20 16,0 °C 72 % 1004,8 hPa 0,0 l/m² 3,6 km/h (1 Bft) S-SO 155 ° 0 min 25,1 klux 11,0 °C 16,0 °C
05.05.2026 11:23 15,4 °C 75 % 1006,1 hPa 0,0 l/m² 0,3 km/h (0 Bft) O-NO 65 ° 15 min 43,3 klux 11,0 °C 15,4 °C
05.05.2026 10:26 13,4 °C 81 % 1006,7 hPa 0,0 l/m² 0,4 km/h (0 Bft) NW 310 ° 6 min 63,1 klux 10,2 °C 13,4 °C
05.05.2026 10:02 12,8 °C 83 % 1006,8 hPa 0,0 l/m² 0,7 km/h (0 Bft) SW 220 ° 0 min 29,0 klux 10,0 °C 12,8 °C
_ Min-Zeit 06:30 12:05 17:30 - 11:26 - - - - 06:33 06:45
Minimum _ 8,8 °C 71 % 1003,5 hPa - 0,0 km/h (0 Bft) - - - - 6,9 °C 3,0 °C
_ Max-Zeit 17:30 00:18 10:02 13:18 19:48 - - 09:13 17:03 17:24 17:33
Maximum _ 16,8 °C 90 % 1006,8 hPa 0,4 l/m² 25,5 km/h
S (4 Bft)
- - 4 min 83,3 klux 12,2 °C 16,3 °C
Durchschnitt _ 12,1 °C 84 % 1005,7 hPa #2,2 l/m² 7,9 km/h (2 Bft) S - #1:04 h 15,6 klux 9,4 °C 10,5 °C